createdAt,value
2018-04-30T00:02:05.521Z,99315.22
2018-04-30T00:04:31.368Z,99309.80
2018-04-30T00:06:57.204Z,99307.08
2018-04-30T00:09:23.034Z,99301.38
2018-04-30T00:11:48.870Z,99293.79
2018-04-30T00:14:14.733Z,99292.11
2018-04-30T00:16:40.569Z,99288.02
2018-04-30T00:19:06.413Z,99276.80
2018-04-30T00:21:32.267Z,99268.68
2018-04-30T00:23:58.111Z,99268.42
2018-04-30T00:26:23.971Z,99261.08
2018-04-30T00:28:49.819Z,99251.82
2018-04-30T00:31:15.671Z,99248.29
2018-04-30T00:33:41.589Z,99241.25
2018-04-30T00:36:07.400Z,99236.72
2018-04-30T00:38:33.242Z,99230.28
2018-04-30T00:40:59.061Z,99221.35
2018-04-30T00:43:24.928Z,99209.35
2018-04-30T00:45:50.776Z,99204.78
2018-04-30T00:48:16.633Z,99204.47
2018-04-30T00:50:42.482Z,99192.34
2018-04-30T00:53:08.311Z,99187.27
2018-04-30T00:55:34.137Z,99185.63
2018-04-30T00:57:59.958Z,99181.47
2018-04-30T01:00:25.819Z,99174.38
2018-04-30T01:02:51.649Z,99167.52
2018-04-30T01:05:17.520Z,99156.95
2018-04-30T01:07:43.382Z,99154.09
2018-04-30T01:10:09.257Z,99139.89
2018-04-30T01:12:35.113Z,99139.62
2018-04-30T01:15:00.939Z,99127.69
2018-04-30T01:17:26.808Z,99133.45
2018-04-30T01:19:52.669Z,99124.63
2018-04-30T01:22:18.504Z,99114.53
2018-04-30T01:24:44.380Z,99118.71
2018-04-30T01:27:10.271Z,99108.15
2018-04-30T01:29:36.132Z,99100.34
2018-04-30T01:32:01.993Z,99092.41
2018-04-30T01:34:27.841Z,99089.16
2018-04-30T01:36:53.690Z,99082.54
2018-04-30T01:39:19.533Z,99081.91
2018-04-30T01:41:45.406Z,99077.25
2018-04-30T01:44:11.286Z,99070.97
2018-04-30T01:46:37.147Z,99068.33
2018-04-30T01:49:03.015Z,99066.56
2018-04-30T01:51:28.866Z,99052.20
2018-04-30T01:53:54.747Z,99053.21
2018-04-30T01:56:20.610Z,99042.23
2018-04-30T01:58:46.484Z,99053.05
2018-04-30T02:01:12.366Z,99047.13
2018-04-30T02:03:38.226Z,99036.62
2018-04-30T02:06:04.071Z,99029.91
2018-04-30T02:08:29.914Z,99026.91
2018-04-30T02:10:55.771Z,99024.70
2018-04-30T02:13:21.636Z,99028.55
2018-04-30T02:15:47.465Z,99030.59
2018-04-30T02:18:13.324Z,99031.02
2018-04-30T02:20:39.176Z,99024.66
2018-04-30T02:23:05.013Z,99010.52
2018-04-30T02:25:30.874Z,99012.47
2018-04-30T02:27:56.717Z,99002.05
2018-04-30T02:30:22.569Z,98998.72
2018-04-30T02:32:48.444Z,99002.02
2018-04-30T02:35:14.287Z,98990.05
2018-04-30T02:37:40.164Z,98986.80
2018-04-30T02:40:06.059Z,98980.66
2018-04-30T02:42:31.894Z,98973.34
2018-04-30T02:44:57.749Z,98963.13
2018-04-30T02:47:23.601Z,98957.77
2018-04-30T02:49:49.454Z,98950.42
2018-04-30T02:52:15.318Z,98942.34
2018-04-30T02:54:41.225Z,98937.35
2018-04-30T02:57:07.087Z,98933.48
2018-04-30T02:59:32.965Z,98928.45
2018-04-30T03:01:58.798Z,98922.53
2018-04-30T03:04:24.636Z,98915.00
2018-04-30T03:06:50.490Z,98916.60
2018-04-30T03:09:16.331Z,98916.70
2018-04-30T03:11:42.191Z,98912.53
2018-04-30T03:14:08.026Z,98906.03
2018-04-30T03:16:33.871Z,98896.50
2018-04-30T03:18:59.710Z,98902.50
2018-04-30T03:21:25.555Z,98891.75
2018-04-30T03:23:51.399Z,98893.81
2018-04-30T03:26:17.254Z,98891.34
2018-04-30T03:28:43.099Z,98889.55
2018-04-30T03:31:08.975Z,98884.52
2018-04-30T03:33:34.831Z,98873.27
2018-04-30T03:36:00.676Z,98878.48
2018-04-30T03:38:26.537Z,98868.88
2018-04-30T03:40:52.376Z,98859.66
2018-04-30T03:43:18.259Z,98855.04
2018-04-30T03:45:44.081Z,98856.81
2018-04-30T03:48:09.925Z,98854.03
2018-04-30T03:50:35.782Z,98863.57
2018-04-30T03:53:01.633Z,98846.92
2018-04-30T03:55:27.492Z,98858.98
2018-04-30T03:57:53.358Z,98873.19
2018-04-30T04:00:31.818Z,98903.16
2018-04-30T04:03:09.917Z,98937.77
2018-04-30T04:08:34.807Z,98917.33
2018-04-30T04:11:00.641Z,98921.55
2018-04-30T04:13:27.555Z,98902.62
2018-04-30T04:15:53.423Z,98892.76
2018-04-30T04:18:19.272Z,98888.44
2018-04-30T04:20:45.135Z,98898.69
2018-04-30T04:23:10.993Z,98910.05
2018-04-30T04:25:36.867Z,98902.95
2018-04-30T04:28:02.735Z,98909.28
2018-04-30T04:30:28.586Z,98909.75
2018-04-30T04:32:54.429Z,98908.03
2018-04-30T04:35:20.269Z,98907.86
2018-04-30T04:37:46.114Z,98905.86
2018-04-30T04:40:11.989Z,98902.11
2018-04-30T04:42:37.826Z,98896.33
2018-04-30T04:45:03.702Z,98889.23
2018-04-30T04:47:29.580Z,98883.48
2018-04-30T04:49:55.457Z,98887.94
2018-04-30T04:52:21.298Z,98880.93
2018-04-30T04:54:47.147Z,98877.42
2018-04-30T04:57:12.999Z,98873.34
2018-04-30T04:59:38.852Z,98878.56
2018-04-30T05:02:04.708Z,98879.65
2018-04-30T05:04:30.545Z,98888.45
2018-04-30T05:06:56.411Z,98877.22
2018-04-30T05:09:22.230Z,98871.71
2018-04-30T05:11:48.077Z,98869.96
2018-04-30T05:14:13.937Z,98875.87
2018-04-30T05:16:39.792Z,98876.59
2018-04-30T05:19:05.675Z,98889.16
2018-04-30T05:21:31.512Z,98891.06
2018-04-30T05:23:57.396Z,98882.30
2018-04-30T05:26:23.236Z,98878.89
2018-04-30T05:28:49.081Z,98885.60
2018-04-30T05:31:14.928Z,98885.02
2018-04-30T05:33:40.795Z,98883.67
2018-04-30T05:36:06.639Z,98887.58
2018-04-30T05:38:32.494Z,98886.38
2018-04-30T05:40:58.359Z,98887.19
2018-04-30T05:43:24.193Z,98894.40
2018-04-30T05:45:50.057Z,98893.73
2018-04-30T05:48:15.901Z,98888.79
2018-04-30T05:50:41.737Z,98886.84
2018-04-30T05:53:07.626Z,98886.84
2018-04-30T05:55:33.493Z,98887.69
2018-04-30T05:57:59.330Z,98878.02
2018-04-30T06:00:25.748Z,98894.62
2018-04-30T06:02:51.605Z,98892.12
2018-04-30T06:05:17.457Z,98887.79
2018-04-30T06:07:43.320Z,98882.17
2018-04-30T06:10:09.179Z,98890.92
2018-04-30T06:12:35.031Z,98889.89
2018-04-30T06:15:00.885Z,98885.77
2018-04-30T06:17:26.805Z,98885.41
2018-04-30T06:19:52.587Z,98889.08
2018-04-30T06:22:18.450Z,98906.03
2018-04-30T06:24:44.307Z,98895.03
2018-04-30T06:27:10.168Z,98895.58
2018-04-30T06:29:36.006Z,98898.86
2018-04-30T06:32:01.856Z,98894.83
2018-04-30T06:34:27.692Z,98885.28
2018-04-30T06:36:53.543Z,98885.98
2018-04-30T06:39:19.410Z,98885.88
2018-04-30T06:41:45.258Z,98890.47
2018-04-30T06:44:11.111Z,98885.89
2018-04-30T06:46:36.955Z,98886.21
2018-04-30T06:49:02.841Z,98894.06
2018-04-30T06:51:28.687Z,98888.98
2018-04-30T06:53:54.549Z,98891.16
2018-04-30T06:56:20.391Z,98896.13
2018-04-30T06:58:46.256Z,98892.39
2018-04-30T07:01:12.135Z,98897.90
2018-04-30T07:03:37.999Z,98895.79
2018-04-30T07:06:03.860Z,98900.77
2018-04-30T07:08:29.715Z,98901.09
2018-04-30T07:10:55.592Z,98910.47
2018-04-30T07:13:21.460Z,98914.53
2018-04-30T07:15:47.322Z,98917.41
2018-04-30T07:18:13.172Z,98923.47
2018-04-30T07:20:39.034Z,98932.00
2018-04-30T07:23:04.894Z,98948.01
2018-04-30T07:25:30.757Z,98944.16
2018-04-30T07:27:56.643Z,98961.83
2018-04-30T07:30:22.535Z,98958.92
2018-04-30T07:32:48.423Z,98957.17
2018-04-30T07:35:14.287Z,98989.39
2018-04-30T07:37:40.145Z,98967.77
2018-04-30T07:40:06.025Z,98967.36
2018-04-30T07:42:31.886Z,98968.53
2018-04-30T07:44:57.774Z,98963.91
2018-04-30T07:47:23.630Z,98976.27
2018-04-30T07:49:49.489Z,98966.77
2018-04-30T07:52:15.345Z,98966.98
2018-04-30T07:54:41.276Z,98984.92
2018-04-30T07:57:07.168Z,98978.25
2018-04-30T07:59:33.012Z,98977.02
2018-04-30T08:01:58.854Z,98976.80
2018-04-30T08:04:24.718Z,98972.10
2018-04-30T08:06:50.616Z,98976.70
2018-04-30T08:09:16.542Z,98977.34
2018-04-30T08:11:42.466Z,98988.63
2018-04-30T08:14:08.325Z,98991.20
2018-04-30T08:16:35.139Z,99004.81
2018-04-30T08:19:01.131Z,99014.38
2018-04-30T08:21:27.038Z,99007.16
2018-04-30T08:23:52.820Z,99012.33
2018-04-30T08:26:18.657Z,99029.06
2018-04-30T08:28:44.533Z,99019.92
2018-04-30T08:31:10.492Z,99026.21
2018-04-30T08:33:36.324Z,99031.84
2018-04-30T08:36:02.184Z,99043.69
2018-04-30T08:38:28.043Z,99052.88
2018-04-30T08:40:53.883Z,99057.93
2018-04-30T08:43:19.729Z,99074.28
2018-04-30T08:45:45.604Z,99092.08
2018-04-30T08:48:11.447Z,99094.06
2018-04-30T08:50:37.304Z,99108.52
2018-04-30T08:53:03.198Z,99124.31
2018-04-30T08:55:29.059Z,99121.62
2018-04-30T08:57:54.924Z,99123.03
2018-04-30T09:00:20.821Z,99120.65
2018-04-30T09:02:46.682Z,99122.40
2018-04-30T09:05:12.534Z,99119.98
2018-04-30T09:07:38.395Z,99128.68
2018-04-30T09:10:04.219Z,99145.93
2018-04-30T09:12:30.737Z,99148.63
2018-04-30T09:14:56.570Z,99157.75
2018-04-30T09:17:22.427Z,99165.71
2018-04-30T09:19:48.274Z,99166.92
2018-04-30T09:22:14.125Z,99178.78
2018-04-30T09:24:39.990Z,99187.13
2018-04-30T09:27:05.844Z,99177.27
2018-04-30T09:29:31.704Z,99186.70
2018-04-30T09:31:57.559Z,99180.17
2018-04-30T09:34:23.419Z,99186.52
2018-04-30T09:36:49.269Z,99195.52
2018-04-30T09:39:15.098Z,99197.66
2018-04-30T09:41:41.011Z,99207.84
2018-04-30T09:44:06.850Z,99219.95
2018-04-30T09:46:32.677Z,99224.89
2018-04-30T09:48:58.769Z,99227.20
2018-04-30T09:51:24.601Z,99219.91
2018-04-30T09:53:50.441Z,99211.03
2018-04-30T09:56:16.284Z,99217.22
2018-04-30T09:58:42.122Z,99227.77
2018-04-30T10:01:08.014Z,99228.89
2018-04-30T10:03:33.887Z,99234.75
2018-04-30T10:05:59.753Z,99255.04
2018-04-30T10:08:25.603Z,99257.59
2018-04-30T10:10:51.464Z,99246.61
2018-04-30T10:13:17.386Z,99258.53
2018-04-30T10:15:43.217Z,99248.01
2018-04-30T10:18:09.089Z,99253.73
2018-04-30T10:20:34.969Z,99257.12
2018-04-30T10:23:00.935Z,99250.61
2018-04-30T10:25:26.716Z,99257.15
2018-04-30T10:27:52.573Z,99257.27
2018-04-30T10:30:18.423Z,99262.20
2018-04-30T10:32:44.287Z,99252.91
2018-04-30T10:35:10.126Z,99241.89
2018-04-30T10:37:36.126Z,99237.73
2018-04-30T10:40:02.004Z,99256.38
2018-04-30T10:42:27.867Z,99246.71
2018-04-30T10:44:53.726Z,99244.20
2018-04-30T10:47:19.584Z,99235.61
2018-04-30T10:49:45.429Z,99243.98
2018-04-30T10:52:11.293Z,99239.77
2018-04-30T10:54:37.145Z,99241.84
2018-04-30T10:57:03.015Z,99241.92
2018-04-30T10:59:28.929Z,99247.59
2018-04-30T11:01:54.805Z,99247.97
2018-04-30T11:04:20.666Z,99252.38
2018-04-30T11:06:46.518Z,99248.79
2018-04-30T11:09:12.382Z,99257.81
2018-04-30T11:11:38.314Z,99265.06
2018-04-30T11:14:04.183Z,99278.67
2018-04-30T11:16:30.074Z,99274.23
2018-04-30T11:18:55.946Z,99293.84
2018-04-30T11:21:21.827Z,99302.80
2018-04-30T11:23:47.695Z,99319.54
2018-04-30T11:26:13.542Z,99327.95
2018-04-30T11:28:39.419Z,99331.38
2018-04-30T11:31:05.312Z,99326.23
2018-04-30T11:33:31.218Z,99334.52
2018-04-30T11:35:57.070Z,99352.11
2018-04-30T11:38:22.947Z,99356.73
2018-04-30T11:40:48.806Z,99353.85
2018-04-30T11:43:14.695Z,99349.85
2018-04-30T11:45:40.573Z,99346.52
2018-04-30T11:48:06.449Z,99345.95
2018-04-30T11:50:32.329Z,99342.61
2018-04-30T11:52:58.222Z,99344.05
2018-04-30T11:55:24.099Z,99341.66
2018-04-30T11:57:49.971Z,99340.87
2018-04-30T12:00:15.871Z,99344.55
2018-04-30T12:02:41.730Z,99357.61
2018-04-30T12:05:07.581Z,99364.45
2018-04-30T12:07:33.466Z,99369.65
2018-04-30T12:09:59.314Z,99372.03
2018-04-30T12:12:25.171Z,99378.30
2018-04-30T12:14:51.017Z,99378.44
2018-04-30T12:17:16.889Z,99387.11
2018-04-30T12:19:42.746Z,99395.56
2018-04-30T12:22:08.700Z,99395.56
2018-04-30T12:24:34.491Z,99399.72
2018-04-30T12:27:00.395Z,99411.42
2018-04-30T12:29:26.265Z,99410.03
2018-04-30T12:31:52.155Z,99407.77
2018-04-30T12:34:18.321Z,99410.42
2018-04-30T12:36:44.375Z,99420.76
2018-04-30T12:39:10.227Z,99408.91
2018-04-30T12:41:36.063Z,99415.07
2018-04-30T12:44:02.009Z,99417.60
2018-04-30T12:46:27.785Z,99412.94
2018-04-30T12:48:53.675Z,99428.33
2018-04-30T12:51:19.555Z,99430.41
2018-04-30T12:53:45.428Z,99430.47
2018-04-30T12:56:11.391Z,99427.70
2018-04-30T12:58:37.242Z,99434.98
2018-04-30T13:01:03.123Z,99434.93
2018-04-30T13:03:29.005Z,99420.17
2018-04-30T13:05:55.056Z,99430.85
2018-04-30T13:08:20.905Z,99433.45
2018-04-30T13:10:46.800Z,99423.63
2018-04-30T13:13:12.654Z,99436.64
2018-04-30T13:15:38.520Z,99441.05
2018-04-30T13:18:04.365Z,99443.42
2018-04-30T13:20:30.348Z,99439.13
2018-04-30T13:22:56.208Z,99434.66
2018-04-30T13:25:22.076Z,99437.83
2018-04-30T13:27:47.971Z,99430.88
2018-04-30T13:30:13.831Z,99435.70
2018-04-30T13:32:39.675Z,99439.66
2018-04-30T13:35:05.505Z,99439.29
2018-04-30T13:37:31.690Z,99447.25
2018-04-30T13:39:57.579Z,99438.44
2018-04-30T13:42:23.404Z,99437.94
2018-04-30T13:44:49.308Z,99432.02
2018-04-30T13:47:15.174Z,99438.44
2018-04-30T13:49:41.034Z,99436.90
2018-04-30T13:52:06.928Z,99428.58
2018-04-30T13:54:32.799Z,99414.66
2018-04-30T13:56:58.668Z,99423.84
2018-04-30T13:59:24.549Z,99425.88
2018-04-30T14:01:50.569Z,99436.81
2018-04-30T14:04:16.353Z,99418.84
2018-04-30T14:06:42.216Z,99424.27
2018-04-30T14:09:08.091Z,99439.01
2018-04-30T14:11:33.946Z,99435.58
2018-04-30T14:13:59.769Z,99435.37
2018-04-30T14:16:26.452Z,99421.56
2018-04-30T14:18:52.297Z,99423.42
2018-04-30T14:21:18.163Z,99424.17
2018-04-30T14:23:44.019Z,99456.66
2018-04-30T14:26:09.867Z,99435.63
2018-04-30T14:28:35.699Z,99436.67
2018-04-30T14:31:01.555Z,99434.34
2018-04-30T14:33:27.392Z,99428.42
2018-04-30T14:35:53.260Z,99430.95
2018-04-30T14:38:19.206Z,99433.81
2018-04-30T14:40:45.004Z,99431.60
2018-04-30T14:43:10.917Z,99430.41
2018-04-30T14:45:36.757Z,99421.47
2018-04-30T14:48:02.629Z,99429.57
2018-04-30T14:50:28.503Z,99431.28
2018-04-30T14:52:54.405Z,99432.52
2018-04-30T14:55:20.274Z,99424.83
2018-04-30T14:57:46.154Z,99431.50
2018-04-30T15:00:12.057Z,99428.76
2018-04-30T15:02:37.890Z,99421.59
2018-04-30T15:05:03.869Z,99434.17
2018-04-30T15:07:29.698Z,99428.09
2018-04-30T15:09:55.550Z,99424.25
2018-04-30T15:12:22.091Z,99421.26
2018-04-30T15:14:48.001Z,99423.70
2018-04-30T15:17:13.866Z,99433.91
2018-04-30T15:19:39.762Z,99422.88
2018-04-30T15:22:05.584Z,99423.56
2018-04-30T15:24:31.447Z,99430.56
2018-04-30T15:26:57.278Z,99435.34
2018-04-30T15:29:23.149Z,99425.15
2018-04-30T15:31:48.993Z,99427.17
2018-04-30T15:34:14.875Z,99431.40
2018-04-30T15:36:40.728Z,99429.09
2018-04-30T15:39:06.596Z,99422.11
2018-04-30T15:41:32.444Z,99425.73
2018-04-30T15:43:58.304Z,99424.25
2018-04-30T15:46:24.146Z,99418.38
2018-04-30T15:48:50.039Z,99413.55
2018-04-30T15:51:15.877Z,99419.64
2018-04-30T15:53:41.759Z,99421.80
2018-04-30T15:56:07.636Z,99412.50
2018-04-30T15:58:33.486Z,99419.23
2018-04-30T16:00:59.372Z,99404.67
2018-04-30T16:03:25.229Z,99404.63
2018-04-30T16:05:51.102Z,99395.88
2018-04-30T16:08:16.956Z,99403.66
2018-04-30T16:10:42.828Z,99406.73
2018-04-30T16:13:08.763Z,99423.70
2018-04-30T16:15:34.657Z,99415.63
2018-04-30T16:18:00.507Z,99400.64
2018-04-30T16:20:26.459Z,99395.26
2018-04-30T16:22:52.263Z,99406.70
2018-04-30T16:25:18.090Z,99410.78
2018-04-30T16:27:43.972Z,99419.13
2018-04-30T16:30:10.903Z,99408.57
2018-04-30T16:32:36.780Z,99405.53
2018-04-30T16:35:02.663Z,99408.39
2018-04-30T16:37:28.554Z,99408.96
2018-04-30T16:39:54.450Z,99410.48
2018-04-30T16:42:20.302Z,99410.75
2018-04-30T16:44:46.165Z,99405.70
2018-04-30T16:47:12.039Z,99419.61
2018-04-30T16:49:37.907Z,99414.66
2018-04-30T16:52:03.759Z,99416.73
2018-04-30T16:54:29.612Z,99436.76
2018-04-30T16:56:55.474Z,99425.89
2018-04-30T16:59:21.374Z,99432.53
2018-04-30T17:01:47.239Z,99436.86
2018-04-30T17:04:13.082Z,99432.16
2018-04-30T17:06:38.979Z,99447.73
2018-04-30T17:09:04.892Z,99444.56
2018-04-30T17:11:30.777Z,99440.20
2018-04-30T17:13:56.619Z,99449.66
2018-04-30T17:16:22.486Z,99431.39
2018-04-30T17:18:48.339Z,99440.64
2018-04-30T17:21:14.229Z,99436.63
2018-04-30T17:23:40.100Z,99438.81
2018-04-30T17:26:05.970Z,99446.67
2018-04-30T17:28:31.819Z,99440.98
2018-04-30T17:30:57.668Z,99455.39
2018-04-30T17:33:23.556Z,99460.08
2018-04-30T17:35:49.424Z,99452.12
2018-04-30T17:38:15.322Z,99459.83
2018-04-30T17:40:41.168Z,99459.13
2018-04-30T17:43:07.028Z,99461.60
2018-04-30T17:45:32.883Z,99450.46
2018-04-30T17:47:58.742Z,99459.42
2018-04-30T17:50:24.610Z,99459.11
2018-04-30T17:52:50.466Z,99452.97
2018-04-30T17:55:16.356Z,99457.09
2018-04-30T17:57:42.214Z,99457.20
2018-04-30T18:00:08.132Z,99455.58
2018-04-30T18:02:34.001Z,99460.64
2018-04-30T18:04:59.888Z,99455.20
2018-04-30T18:07:25.797Z,99458.09
2018-04-30T18:09:52.281Z,99470.92
2018-04-30T18:12:18.149Z,99475.73
2018-04-30T18:14:44.038Z,99487.55
2018-04-30T18:17:09.930Z,99475.69
2018-04-30T18:19:35.953Z,99481.72
2018-04-30T18:22:01.853Z,99493.58
2018-04-30T18:24:27.728Z,99489.50
2018-04-30T18:26:53.632Z,99489.35
2018-04-30T18:29:19.506Z,99498.96
2018-04-30T18:31:45.385Z,99510.94
2018-04-30T18:34:11.242Z,99508.07
2018-04-30T18:36:38.123Z,99511.67
2018-04-30T18:39:04.905Z,99520.66
2018-04-30T18:41:30.746Z,99523.02
2018-04-30T18:43:56.639Z,99519.00
2018-04-30T18:46:22.509Z,99527.11
2018-04-30T18:48:48.483Z,99533.59
2018-04-30T18:51:14.349Z,99536.79
2018-04-30T18:53:40.224Z,99544.31
2018-04-30T18:56:06.167Z,99550.08
2018-04-30T18:58:32.046Z,99553.89
2018-04-30T19:00:58.253Z,99563.59
2018-04-30T19:03:24.151Z,99555.95
2018-04-30T19:05:50.036Z,99563.23
2018-04-30T19:08:15.919Z,99579.95
2018-04-30T19:10:41.939Z,99574.06
2018-04-30T19:13:07.858Z,99578.00
2018-04-30T19:15:33.724Z,99571.52
2018-04-30T19:17:59.687Z,99572.91
2018-04-30T19:20:25.525Z,99588.29
2018-04-30T19:22:51.445Z,99585.17
2018-04-30T19:25:17.300Z,99584.58
2018-04-30T19:27:43.195Z,99594.27
2018-04-30T19:30:10.075Z,99581.28
2018-04-30T19:32:35.991Z,99576.55
2018-04-30T19:35:01.878Z,99576.64
2018-04-30T19:37:28.683Z,99569.90
2018-04-30T19:39:54.636Z,99554.85
2018-04-30T19:42:20.521Z,99549.09
2018-04-30T19:44:46.456Z,99541.38
2018-04-30T19:47:12.365Z,99536.44
2018-04-30T19:49:39.229Z,99542.28
2018-04-30T19:52:05.119Z,99541.57
2018-04-30T19:54:30.993Z,99552.58
2018-04-30T19:56:57.693Z,99554.38
2018-04-30T19:59:24.267Z,99564.75
2018-04-30T20:01:50.171Z,99570.74
2018-04-30T20:04:16.053Z,99573.97
2018-04-30T20:06:41.914Z,99575.17
2018-04-30T20:09:07.890Z,99575.08
2018-04-30T20:11:33.814Z,99576.46
2018-04-30T20:13:59.713Z,99570.19
2018-04-30T20:16:25.587Z,99573.02
2018-04-30T20:18:51.511Z,99565.95
2018-04-30T20:21:17.425Z,99571.33
2018-04-30T20:23:43.906Z,99568.52
2018-04-30T20:26:09.852Z,99570.41
2018-04-30T20:28:35.755Z,99568.65
2018-04-30T20:31:01.687Z,99561.40
2018-04-30T20:33:27.678Z,99550.89
2018-04-30T20:35:53.617Z,99546.87
2018-04-30T20:38:19.481Z,99544.32
2018-04-30T20:40:45.385Z,99546.55
2018-04-30T20:43:11.282Z,99552.84
2018-04-30T20:45:37.200Z,99547.84
2018-04-30T20:48:03.244Z,99540.36
2018-04-30T20:50:29.162Z,99545.50
2018-04-30T20:52:55.021Z,99545.43
2018-04-30T20:55:20.909Z,99540.08
2018-04-30T20:57:46.769Z,99542.42
2018-04-30T21:00:12.778Z,99546.69
2018-04-30T21:02:38.643Z,99551.11
2018-04-30T21:05:04.513Z,99553.97
2018-04-30T21:07:30.424Z,99559.72
2018-04-30T21:09:56.336Z,99561.17
2018-04-30T21:12:22.214Z,99555.70
2018-04-30T21:14:48.080Z,99556.44
2018-04-30T21:17:13.991Z,99553.05
2018-04-30T21:19:39.875Z,99561.98
2018-04-30T21:22:05.761Z,99556.34
2018-04-30T21:24:31.692Z,99546.20
2018-04-30T21:26:57.494Z,99544.80
2018-04-30T21:29:23.349Z,99543.27
2018-04-30T21:31:49.227Z,99550.34
2018-04-30T21:34:15.113Z,99543.48
2018-04-30T21:36:40.991Z,99550.98
2018-04-30T21:39:06.873Z,99550.25
2018-04-30T21:41:32.727Z,99549.31
2018-04-30T21:43:58.592Z,99551.84
2018-04-30T21:46:24.425Z,99550.88
2018-04-30T21:48:50.285Z,99546.86
2018-04-30T21:51:16.131Z,99550.38
2018-04-30T21:53:42.001Z,99551.99
2018-04-30T21:56:07.871Z,99553.52
2018-04-30T21:58:33.752Z,99560.52
2018-04-30T22:00:59.679Z,99560.77
2018-04-30T22:03:25.544Z,99562.08
2018-04-30T22:05:51.408Z,99560.64
2018-04-30T22:08:17.350Z,99551.32
2018-04-30T22:10:43.187Z,99556.30
2018-04-30T22:13:09.038Z,99554.43
2018-04-30T22:15:34.912Z,99550.34
2018-04-30T22:18:00.773Z,99555.08
2018-04-30T22:20:26.677Z,99552.34
2018-04-30T22:22:52.537Z,99542.97
2018-04-30T22:25:18.388Z,99548.18
2018-04-30T22:27:44.241Z,99541.80
2018-04-30T22:30:10.121Z,99550.88
2018-04-30T22:32:36.174Z,99554.03
2018-04-30T22:35:02.020Z,99545.34
2018-04-30T22:37:27.887Z,99549.91
2018-04-30T22:39:53.755Z,99548.02
2018-04-30T22:42:19.611Z,99548.89
2018-04-30T22:44:45.444Z,99553.34
2018-04-30T22:47:11.981Z,99556.36
2018-04-30T22:49:37.833Z,99558.68
2018-04-30T22:52:03.716Z,99553.94
2018-04-30T22:54:29.560Z,99556.89
2018-04-30T22:56:55.385Z,99563.53
2018-04-30T22:59:21.239Z,99569.50
2018-04-30T23:01:47.085Z,99562.73
2018-04-30T23:04:12.960Z,99564.13
2018-04-30T23:06:38.789Z,99570.47
2018-04-30T23:09:04.661Z,99559.74
2018-04-30T23:11:30.506Z,99574.10
2018-04-30T23:13:56.351Z,99571.75
2018-04-30T23:16:22.233Z,99559.17
2018-04-30T23:18:48.079Z,99560.78
2018-04-30T23:21:13.947Z,99546.27
2018-04-30T23:23:39.789Z,99554.19
2018-04-30T23:26:05.660Z,99550.36
2018-04-30T23:28:31.520Z,99548.25
2018-04-30T23:30:57.382Z,99549.59
2018-04-30T23:33:23.235Z,99548.78
2018-04-30T23:35:49.074Z,99547.34
2018-04-30T23:38:14.940Z,99553.84
2018-04-30T23:40:40.779Z,99551.52
2018-04-30T23:43:06.637Z,99543.73
2018-04-30T23:45:32.468Z,99546.16
2018-04-30T23:47:58.330Z,99545.58
2018-04-30T23:50:24.215Z,99537.89
2018-04-30T23:52:50.075Z,99536.66
2018-04-30T23:55:15.930Z,99529.77
2018-04-30T23:57:41.786Z,99538.78
